createdAt,value
2022-08-27T00:01:22.927Z,0.00
2022-08-27T00:03:50.908Z,0.00
2022-08-27T00:06:20.223Z,0.00
2022-08-27T00:08:49.164Z,0.00
2022-08-27T00:11:18.824Z,0.00
2022-08-27T00:13:46.635Z,0.00
2022-08-27T00:16:16.196Z,0.00
2022-08-27T00:18:48.112Z,0.00
2022-08-27T00:21:17.742Z,0.00
2022-08-27T00:23:45.382Z,0.00
2022-08-27T00:26:13.239Z,0.00
2022-08-27T00:28:41.595Z,0.00
2022-08-27T00:31:12.471Z,0.00
2022-08-27T00:33:41.262Z,0.00
2022-08-27T00:36:09.487Z,0.00
2022-08-27T00:38:38.582Z,0.00
2022-08-27T00:41:09.514Z,0.00
2022-08-27T00:43:53.817Z,0.00
2022-08-27T00:46:29.785Z,0.00
2022-08-27T00:49:05.961Z,0.00
2022-08-27T00:51:33.448Z,0.00
2022-08-27T00:54:00.930Z,0.00
2022-08-27T00:56:35.205Z,0.00
2022-08-27T00:59:04.162Z,0.00
2022-08-27T01:01:35.820Z,0.00
2022-08-27T01:04:06.058Z,0.00
2022-08-27T01:06:36.855Z,0.00
2022-08-27T01:09:13.248Z,0.00
2022-08-27T01:11:40.304Z,0.00
2022-08-27T01:14:07.351Z,0.00
2022-08-27T01:16:40.267Z,0.00
2022-08-27T01:19:23.043Z,0.00
2022-08-27T01:22:20.385Z,0.00
2022-08-27T01:24:56.007Z,0.00
2022-08-27T01:27:28.205Z,0.00
2022-08-27T01:29:55.888Z,0.00
2022-08-27T01:32:28.224Z,0.00
2022-08-27T01:34:57.424Z,0.00
2022-08-27T01:37:25.854Z,0.00
2022-08-27T01:39:56.986Z,0.00
2022-08-27T01:42:42.673Z,0.00
2022-08-27T01:45:36.986Z,0.00
2022-08-27T01:48:07.680Z,0.00
2022-08-27T01:50:40.157Z,0.00
2022-08-27T01:53:21.959Z,0.00
2022-08-27T01:55:51.742Z,0.00
2022-08-27T01:58:25.171Z,0.00
2022-08-27T02:00:56.914Z,0.00
2022-08-27T02:03:25.712Z,0.00
2022-08-27T02:05:53.051Z,0.00
2022-08-27T02:08:20.732Z,0.00
2022-08-27T02:10:49.693Z,0.00
2022-08-27T02:13:17.673Z,0.00
2022-08-27T02:15:45.568Z,0.00
2022-08-27T02:18:13.939Z,0.00
2022-08-27T02:20:43.901Z,0.00
2022-08-27T02:23:11.233Z,0.00
2022-08-27T02:25:38.794Z,0.00
2022-08-27T02:28:07.006Z,0.00
2022-08-27T02:30:35.562Z,0.00
2022-08-27T02:33:04.597Z,0.00
2022-08-27T02:35:35.286Z,0.00
2022-08-27T02:38:02.482Z,0.00
2022-08-27T02:40:29.886Z,0.00
2022-08-27T02:42:56.987Z,0.00
2022-08-27T02:45:24.270Z,0.00
2022-08-27T02:47:51.334Z,0.00
2022-08-27T02:50:18.726Z,0.00
2022-08-27T02:52:46.369Z,0.00
2022-08-27T02:55:17.230Z,0.00
2022-08-27T02:57:45.722Z,0.00
2022-08-27T03:00:16.764Z,0.00
2022-08-27T03:02:44.119Z,0.00
2022-08-27T03:05:13.363Z,0.00
2022-08-27T03:07:41.321Z,0.00
2022-08-27T03:10:12.221Z,0.00
2022-08-27T03:12:39.881Z,0.00
2022-08-27T03:15:10.512Z,0.00
2022-08-27T03:17:56.590Z,0.00
2022-08-27T03:20:25.143Z,0.00
2022-08-27T03:22:53.575Z,0.00
2022-08-27T03:25:21.088Z,0.00
2022-08-27T03:27:48.189Z,0.00
2022-08-27T03:30:20.279Z,0.00
2022-08-27T03:32:47.868Z,0.00
2022-08-27T03:35:15.487Z,0.00
2022-08-27T03:37:43.360Z,0.00
2022-08-27T03:40:11.890Z,0.00
2022-08-27T03:42:41.718Z,0.00
2022-08-27T03:45:10.701Z,0.00
2022-08-27T03:47:38.505Z,0.00
2022-08-27T03:50:08.001Z,0.00
2022-08-27T03:52:37.211Z,0.00
2022-08-27T03:55:07.785Z,0.00
2022-08-27T03:57:34.992Z,0.00
2022-08-27T04:00:02.728Z,0.00
2022-08-27T04:02:29.842Z,0.00
2022-08-27T04:04:59.941Z,0.00
2022-08-27T04:07:27.038Z,0.00
2022-08-27T04:09:54.035Z,0.00
2022-08-27T04:12:21.097Z,0.00
2022-08-27T04:14:48.245Z,0.00
2022-08-27T04:17:16.176Z,0.00
2022-08-27T04:19:43.174Z,0.00
2022-08-27T04:22:10.253Z,0.00
2022-08-27T04:24:38.175Z,0.00
2022-08-27T04:27:06.705Z,0.00
2022-08-27T04:29:34.330Z,0.00
2022-08-27T04:32:01.962Z,0.00
2022-08-27T04:34:30.351Z,0.00
2022-08-27T04:36:58.417Z,0.00
2022-08-27T04:39:28.040Z,0.00
2022-08-27T04:41:58.225Z,0.00
2022-08-27T04:44:29.405Z,0.00
2022-08-27T04:47:05.426Z,100.00
2022-08-27T04:49:33.979Z,100.00
2022-08-27T04:52:01.392Z,100.00
2022-08-27T04:54:32.855Z,100.00
2022-08-27T04:57:02.818Z,100.00
2022-08-27T04:59:31.250Z,100.00
2022-08-27T05:01:58.913Z,100.00
2022-08-27T05:04:26.307Z,100.00
2022-08-27T05:06:54.829Z,100.00
2022-08-27T05:09:21.971Z,100.00
2022-08-27T05:11:54.057Z,100.00
2022-08-27T05:14:22.295Z,100.00
2022-08-27T05:16:49.442Z,100.00
2022-08-27T05:19:16.723Z,100.00
2022-08-27T05:21:49.814Z,100.00
2022-08-27T05:24:18.330Z,100.00
2022-08-27T05:26:46.098Z,100.00
2022-08-27T05:29:14.371Z,100.00
2022-08-27T05:31:42.994Z,100.00
2022-08-27T05:34:15.428Z,100.00
2022-08-27T05:36:48.151Z,100.00
2022-08-27T05:39:17.325Z,100.00
2022-08-27T05:41:44.515Z,100.00
2022-08-27T05:44:39.654Z,100.00
2022-08-27T05:46:59.001Z,100.00
2022-08-27T05:49:26.139Z,100.00
2022-08-27T05:51:53.186Z,100.00
2022-08-27T05:54:20.426Z,100.00
2022-08-27T05:56:50.287Z,100.00
2022-08-27T05:59:36.701Z,100.00
2022-08-27T06:02:06.242Z,100.00
2022-08-27T06:04:33.453Z,100.00
2022-08-27T06:07:00.774Z,100.00
2022-08-27T06:09:30.155Z,100.00
2022-08-27T06:12:00.190Z,100.00
2022-08-27T06:14:27.765Z,100.00
2022-08-27T06:16:55.444Z,100.00
2022-08-27T06:19:23.015Z,100.00
2022-08-27T06:22:00.807Z,100.00
2022-08-27T06:24:39.976Z,100.00
2022-08-27T06:27:09.115Z,100.00
2022-08-27T06:29:36.125Z,100.00
2022-08-27T06:32:03.881Z,100.00
2022-08-27T06:34:31.043Z,100.00
2022-08-27T06:36:58.176Z,100.00
2022-08-27T06:39:25.190Z,100.00
2022-08-27T06:41:53.010Z,100.00
2022-08-27T06:44:21.178Z,100.00
2022-08-27T06:46:48.321Z,100.00
2022-08-27T06:49:15.387Z,100.00
2022-08-27T06:51:46.950Z,100.00
2022-08-27T06:54:15.914Z,100.00
2022-08-27T06:56:44.658Z,100.00
2022-08-27T06:59:15.076Z,100.00
2022-08-27T07:01:47.533Z,100.00
2022-08-27T07:04:21.610Z,100.00
2022-08-27T07:06:49.247Z,100.00
2022-08-27T07:09:17.062Z,100.00
2022-08-27T07:11:44.101Z,100.00
2022-08-27T07:14:11.449Z,100.00
2022-08-27T07:16:40.864Z,100.00
2022-08-27T07:19:08.200Z,100.00
2022-08-27T07:21:36.227Z,100.00
2022-08-27T07:24:05.144Z,100.00
2022-08-27T07:26:36.213Z,100.00
2022-08-27T07:29:06.532Z,100.00
2022-08-27T07:31:35.799Z,100.00
2022-08-27T07:34:04.682Z,100.00
2022-08-27T07:36:33.166Z,100.00
2022-08-27T07:39:01.508Z,100.00
2022-08-27T07:41:32.909Z,100.00
2022-08-27T07:44:19.590Z,100.00
2022-08-27T07:46:49.448Z,100.00
2022-08-27T07:49:17.993Z,100.00
2022-08-27T07:51:45.405Z,100.00
2022-08-27T07:54:12.614Z,100.00
2022-08-27T07:56:39.696Z,100.00
2022-08-27T07:59:07.132Z,100.00
2022-08-27T08:01:34.445Z,100.00
2022-08-27T08:04:01.690Z,100.00
2022-08-27T08:06:29.184Z,99.99
2022-08-27T08:08:56.221Z,99.85
2022-08-27T08:11:23.290Z,99.64
2022-08-27T08:13:50.370Z,99.33
2022-08-27T08:16:17.574Z,99.05
2022-08-27T08:18:44.650Z,98.74
2022-08-27T08:21:14.949Z,98.05
2022-08-27T08:23:43.008Z,97.58
2022-08-27T08:26:12.399Z,97.59
2022-08-27T08:28:41.011Z,97.00
2022-08-27T08:31:08.955Z,96.51
2022-08-27T08:33:37.223Z,96.64
2022-08-27T08:36:14.957Z,95.90
2022-08-27T08:38:43.210Z,95.51
2022-08-27T08:41:39.000Z,94.86
2022-08-27T08:44:34.121Z,94.52
2022-08-27T08:47:25.121Z,94.21
2022-08-27T08:50:19.944Z,94.26
2022-08-27T08:52:59.470Z,94.83
2022-08-27T08:55:33.489Z,94.60
2022-08-27T08:58:45.572Z,94.17
2022-08-27T09:01:17.524Z,94.31
2022-08-27T09:04:01.182Z,93.85
2022-08-27T09:06:55.098Z,93.96
2022-08-27T09:09:51.361Z,94.00
2022-08-27T09:12:27.390Z,93.91
2022-08-27T09:15:17.188Z,93.72
2022-08-27T09:17:45.483Z,94.30
2022-08-27T09:20:25.559Z,94.21
2022-08-27T09:23:11.873Z,94.13
2022-08-27T09:25:41.886Z,94.74
2022-08-27T09:28:48.160Z,94.60
2022-08-27T09:31:20.876Z,94.93
2022-08-27T09:33:56.861Z,95.01
2022-08-27T09:36:25.414Z,94.73
2022-08-27T09:39:03.584Z,94.90
2022-08-27T09:41:37.810Z,94.65
2022-08-27T09:44:18.404Z,94.10
2022-08-27T09:47:00.011Z,93.71
2022-08-27T09:49:27.251Z,92.94
2022-08-27T09:51:56.712Z,92.59
2022-08-27T09:54:46.741Z,90.74
2022-08-27T09:57:38.998Z,89.25
2022-08-27T10:00:15.010Z,88.77
2022-08-27T10:02:55.042Z,88.15
2022-08-27T10:05:43.670Z,87.41
2022-08-27T10:08:31.834Z,87.30
2022-08-27T10:11:07.678Z,87.23
2022-08-27T10:14:01.452Z,87.02
2022-08-27T10:16:48.422Z,87.04
2022-08-27T10:20:16.328Z,87.16
2022-08-27T10:23:13.262Z,87.51
2022-08-27T10:25:53.149Z,87.24
2022-08-27T10:28:36.933Z,86.25
2022-08-27T10:31:26.961Z,85.02
2022-08-27T10:34:24.355Z,84.03
2022-08-27T10:37:24.597Z,83.30
2022-08-27T10:40:20.199Z,82.86
2022-08-27T10:43:17.474Z,82.79
2022-08-27T10:46:27.153Z,82.75
2022-08-27T10:49:25.270Z,83.30
2022-08-27T10:52:10.890Z,82.94
2022-08-27T10:54:47.966Z,82.86
2022-08-27T10:57:55.071Z,83.13
2022-08-27T11:00:36.271Z,83.60
2022-08-27T11:03:13.709Z,83.20
2022-08-27T11:05:50.427Z,82.80
2022-08-27T11:08:39.163Z,82.59
2022-08-27T11:11:57.149Z,82.37
2022-08-27T11:14:08.612Z,82.07
2022-08-27T11:16:48.266Z,82.18
2022-08-27T11:19:28.130Z,82.72
2022-08-27T11:22:26.006Z,82.60
2022-08-27T11:25:00.012Z,83.90
2022-08-27T11:27:31.670Z,84.70
2022-08-27T11:30:16.997Z,84.48
2022-08-27T11:33:05.139Z,85.02
2022-08-27T11:35:50.650Z,85.17
2022-08-27T11:38:29.262Z,84.86
2022-08-27T11:41:45.627Z,85.23
2022-08-27T11:44:15.066Z,86.14
2022-08-27T11:46:58.850Z,85.96
2022-08-27T11:49:31.141Z,86.73
2022-08-27T11:52:05.102Z,86.76
2022-08-27T11:55:10.748Z,86.50
2022-08-27T11:57:38.784Z,87.10
2022-08-27T12:00:27.736Z,86.91
2022-08-27T12:03:03.857Z,87.55
2022-08-27T12:05:49.303Z,87.89
2022-08-27T12:08:37.330Z,88.10
2022-08-27T12:11:37.966Z,88.05
2022-08-27T12:14:36.482Z,87.42
2022-08-27T12:17:16.997Z,86.73
2022-08-27T12:20:50.925Z,86.63
2022-08-27T12:23:57.557Z,86.35
2022-08-27T12:26:33.565Z,85.82
2022-08-27T12:29:39.318Z,85.10
2022-08-27T12:32:26.170Z,84.49
2022-08-27T12:35:19.601Z,83.54
2022-08-27T12:38:07.464Z,82.91
2022-08-27T12:40:48.896Z,81.95
2022-08-27T12:43:28.895Z,81.58
2022-08-27T12:46:04.698Z,81.39
2022-08-27T12:48:43.162Z,80.55
2022-08-27T12:51:32.687Z,79.83
2022-08-27T12:54:37.132Z,78.93
2022-08-27T12:57:39.737Z,78.46
2022-08-27T13:00:26.445Z,77.79
2022-08-27T13:03:43.174Z,78.13
2022-08-27T13:06:20.366Z,78.44
2022-08-27T13:08:59.386Z,77.97
2022-08-27T13:11:44.251Z,77.52
2022-08-27T13:14:20.211Z,77.56
2022-08-27T13:16:57.939Z,77.09
2022-08-27T13:19:34.883Z,76.65
2022-08-27T13:22:06.013Z,76.60
2022-08-27T13:24:47.301Z,76.18
2022-08-27T13:27:14.689Z,76.13
2022-08-27T13:29:42.881Z,75.21
2022-08-27T13:32:11.945Z,74.60
2022-08-27T13:34:41.062Z,73.58
2022-08-27T13:37:35.465Z,73.38
2022-08-27T13:40:03.737Z,72.89
2022-08-27T13:42:31.805Z,72.76
2022-08-27T13:45:04.691Z,71.78
2022-08-27T13:47:43.241Z,71.85
2022-08-27T13:50:32.033Z,71.96
2022-08-27T13:53:28.733Z,71.60
2022-08-27T13:55:58.594Z,71.42
2022-08-27T13:58:34.061Z,71.42
2022-08-27T14:01:16.607Z,71.37
2022-08-27T14:04:10.175Z,72.55
2022-08-27T14:06:47.099Z,73.41
2022-08-27T14:09:29.024Z,73.62
2022-08-27T14:12:00.530Z,73.48
2022-08-27T14:14:28.058Z,73.66
2022-08-27T14:17:05.510Z,73.59
2022-08-27T14:19:36.595Z,73.66
2022-08-27T14:22:05.116Z,74.20
2022-08-27T14:24:32.142Z,74.36
2022-08-27T14:27:13.322Z,74.55
2022-08-27T14:29:40.514Z,74.70
2022-08-27T14:32:07.802Z,74.74
2022-08-27T14:34:35.886Z,74.64
2022-08-27T14:37:03.934Z,74.44
2022-08-27T14:39:31.776Z,74.24
2022-08-27T14:41:59.532Z,74.02
2022-08-27T14:44:27.011Z,73.88
2022-08-27T14:46:54.935Z,74.22
2022-08-27T14:49:29.665Z,74.05
2022-08-27T14:51:56.995Z,74.19
2022-08-27T14:54:29.078Z,74.33
2022-08-27T14:57:02.996Z,73.86
2022-08-27T14:59:30.993Z,73.91
2022-08-27T15:02:00.130Z,74.31
2022-08-27T15:04:28.951Z,74.36
2022-08-27T15:06:56.573Z,74.93
2022-08-27T15:09:23.640Z,75.26
2022-08-27T15:11:52.618Z,75.95
2022-08-27T15:14:33.418Z,76.21
2022-08-27T15:17:01.513Z,77.08
2022-08-27T15:19:38.154Z,77.66
2022-08-27T15:22:27.376Z,78.10
2022-08-27T15:24:57.282Z,78.54
2022-08-27T15:27:32.045Z,79.35
2022-08-27T15:30:13.757Z,79.65
2022-08-27T15:32:47.213Z,79.73
2022-08-27T15:35:19.452Z,80.40
2022-08-27T15:37:46.659Z,80.90
2022-08-27T15:40:16.355Z,80.82
2022-08-27T15:42:43.668Z,80.94
2022-08-27T15:45:13.511Z,81.09
2022-08-27T15:47:40.764Z,81.25
2022-08-27T15:50:08.614Z,81.83
2022-08-27T15:52:41.009Z,82.02
2022-08-27T15:55:23.904Z,82.21
2022-08-27T15:57:51.724Z,82.63
2022-08-27T16:00:20.216Z,82.50
2022-08-27T16:02:47.598Z,83.02
2022-08-27T16:05:16.317Z,83.26
2022-08-27T16:07:44.244Z,83.69
2022-08-27T16:10:12.088Z,83.27
2022-08-27T16:12:39.149Z,83.95
2022-08-27T16:15:07.681Z,84.04
2022-08-27T16:17:36.114Z,84.24
2022-08-27T16:20:05.565Z,84.21
2022-08-27T16:22:34.840Z,84.69
2022-08-27T16:25:02.846Z,84.29
2022-08-27T16:27:29.968Z,84.32
2022-08-27T16:29:57.442Z,84.69
2022-08-27T16:32:25.851Z,85.00
2022-08-27T16:34:55.603Z,85.10
2022-08-27T16:37:24.803Z,85.31
2022-08-27T16:39:52.010Z,85.28
2022-08-27T16:42:19.861Z,85.07
2022-08-27T16:44:46.946Z,84.77
2022-08-27T16:47:14.389Z,85.07
2022-08-27T16:50:00.099Z,85.26
2022-08-27T16:52:27.588Z,85.17
2022-08-27T16:54:56.871Z,85.96
2022-08-27T16:57:24.353Z,86.04
2022-08-27T16:59:51.434Z,86.47
2022-08-27T17:02:30.089Z,86.36
2022-08-27T17:05:01.494Z,86.38
2022-08-27T17:07:48.889Z,86.90
2022-08-27T17:10:18.466Z,87.18
2022-08-27T17:12:47.367Z,87.64
2022-08-27T17:15:18.901Z,87.53
2022-08-27T17:17:46.654Z,87.49
2022-08-27T17:20:15.542Z,88.03
2022-08-27T17:22:43.737Z,87.73
2022-08-27T17:25:11.528Z,88.08
2022-08-27T17:27:38.635Z,88.03
2022-08-27T17:30:07.618Z,88.14
2022-08-27T17:32:39.886Z,88.18
2022-08-27T17:35:08.452Z,88.34
2022-08-27T17:37:35.899Z,88.60
2022-08-27T17:40:04.710Z,88.85
2022-08-27T17:42:32.193Z,88.90
2022-08-27T17:45:00.155Z,88.91
2022-08-27T17:47:27.930Z,89.01
2022-08-27T17:49:55.072Z,89.22
2022-08-27T17:52:22.461Z,89.61
2022-08-27T17:54:54.159Z,89.75
2022-08-27T17:57:22.613Z,89.91
2022-08-27T17:59:50.345Z,90.17
2022-08-27T18:02:22.741Z,90.04
2022-08-27T18:04:50.439Z,90.04
2022-08-27T18:07:18.998Z,90.05
2022-08-27T18:09:46.878Z,89.93
2022-08-27T18:12:18.626Z,90.18
2022-08-27T18:14:51.078Z,90.02
2022-08-27T18:17:18.077Z,90.27
2022-08-27T18:19:45.904Z,90.10
2022-08-27T18:22:16.392Z,90.09
2022-08-27T18:24:43.641Z,90.03
2022-08-27T18:27:10.850Z,90.15
2022-08-27T18:29:37.869Z,90.33
2022-08-27T18:32:05.114Z,90.06
2022-08-27T18:34:32.597Z,90.31
2022-08-27T18:36:59.740Z,90.45
2022-08-27T18:39:26.845Z,90.44
2022-08-27T18:41:54.658Z,90.51
2022-08-27T18:44:21.788Z,90.57
2022-08-27T18:46:49.085Z,90.41
2022-08-27T18:49:16.237Z,90.82
2022-08-27T18:51:48.067Z,90.88
2022-08-27T18:54:17.718Z,90.96
2022-08-27T18:56:44.865Z,91.13
2022-08-27T18:59:13.159Z,90.95
2022-08-27T19:01:40.633Z,90.89
2022-08-27T19:04:08.171Z,90.69
2022-08-27T19:06:35.642Z,90.63
2022-08-27T19:09:03.977Z,90.60
2022-08-27T19:11:31.639Z,90.67
2022-08-27T19:13:58.694Z,90.44
2022-08-27T19:16:45.644Z,89.89
2022-08-27T19:19:15.786Z,89.89
2022-08-27T19:21:46.893Z,89.85
2022-08-27T19:24:16.681Z,89.79
2022-08-27T19:26:44.492Z,89.45
2022-08-27T19:29:11.626Z,89.16
2022-08-27T19:31:39.046Z,89.23
2022-08-27T19:34:08.236Z,89.17
2022-08-27T19:36:40.818Z,89.26
2022-08-27T19:39:11.165Z,89.36
2022-08-27T19:41:38.664Z,89.23
2022-08-27T19:44:05.731Z,89.29
2022-08-27T19:46:33.153Z,89.76
2022-08-27T19:49:00.293Z,89.60
2022-08-27T19:51:27.465Z,89.66
2022-08-27T19:53:54.527Z,89.56
2022-08-27T19:56:21.936Z,89.95
2022-08-27T19:58:49.050Z,89.88
2022-08-27T20:01:16.346Z,89.85
2022-08-27T20:03:43.758Z,90.00
2022-08-27T20:06:11.077Z,89.91
2022-08-27T20:08:38.198Z,89.88
2022-08-27T20:11:05.400Z,89.89
2022-08-27T20:13:33.345Z,90.13
2022-08-27T20:16:02.920Z,89.95
2022-08-27T20:18:30.151Z,89.95
2022-08-27T20:20:57.256Z,90.05
2022-08-27T20:23:25.181Z,90.09
2022-08-27T20:25:56.680Z,90.06
2022-08-27T20:28:43.336Z,90.21
2022-08-27T20:31:10.987Z,90.42
2022-08-27T20:33:38.422Z,90.65
2022-08-27T20:36:08.616Z,90.59
2022-08-27T20:38:35.985Z,90.69
2022-08-27T20:41:03.217Z,90.81
2022-08-27T20:43:30.424Z,90.91
2022-08-27T20:45:57.739Z,91.17
2022-08-27T20:48:24.870Z,91.32
2022-08-27T20:50:52.044Z,90.99
2022-08-27T20:53:19.010Z,91.47
2022-08-27T20:55:46.337Z,91.75
2022-08-27T20:58:32.018Z,91.79
2022-08-27T21:01:00.011Z,92.23
2022-08-27T21:03:27.181Z,92.62
2022-08-27T21:05:54.230Z,92.86
2022-08-27T21:08:21.957Z,92.79
2022-08-27T21:10:56.820Z,92.95
2022-08-27T21:13:26.602Z,93.18
2022-08-27T21:15:56.524Z,93.37
2022-08-27T21:18:29.344Z,93.64
2022-08-27T21:20:58.240Z,93.80
2022-08-27T21:23:27.766Z,94.06
2022-08-27T21:25:59.673Z,94.09
2022-08-27T21:28:26.848Z,94.32
2022-08-27T21:30:53.878Z,94.47
2022-08-27T21:33:21.149Z,94.39
2022-08-27T21:35:49.214Z,94.51
2022-08-27T21:38:16.473Z,94.82
2022-08-27T21:40:43.669Z,94.96
2022-08-27T21:43:10.918Z,95.09
2022-08-27T21:45:39.333Z,95.59
2022-08-27T21:48:06.447Z,95.53
2022-08-27T21:50:33.560Z,95.90
2022-08-27T21:53:00.658Z,96.11
2022-08-27T21:55:27.901Z,96.34
2022-08-27T21:57:55.067Z,96.52
2022-08-27T22:00:43.139Z,97.07
2022-08-27T22:03:18.228Z,97.39
2022-08-27T22:05:46.213Z,97.58
2022-08-27T22:08:15.878Z,97.36
2022-08-27T22:10:46.817Z,98.18
2022-08-27T22:13:15.319Z,98.50
2022-08-27T22:15:42.454Z,98.96
2022-08-27T22:18:09.921Z,99.23
2022-08-27T22:20:37.138Z,99.33
2022-08-27T22:23:09.968Z,100.00
2022-08-27T22:25:38.436Z,100.00
2022-08-27T22:28:05.568Z,100.00
2022-08-27T22:30:32.727Z,100.00
2022-08-27T22:33:00.307Z,100.00
2022-08-27T22:35:28.932Z,100.00
2022-08-27T22:37:56.491Z,100.00
2022-08-27T22:40:27.350Z,100.00
2022-08-27T22:42:55.891Z,100.00
2022-08-27T22:45:23.898Z,100.00
2022-08-27T22:47:51.155Z,100.00
2022-08-27T22:50:20.791Z,100.00
2022-08-27T22:52:49.486Z,100.00
2022-08-27T22:55:21.450Z,100.00
2022-08-27T22:57:51.790Z,100.00
2022-08-27T23:00:27.139Z,100.00
2022-08-27T23:02:54.496Z,100.00
2022-08-27T23:05:22.671Z,100.00
2022-08-27T23:07:50.383Z,100.00
2022-08-27T23:10:21.485Z,100.00
2022-08-27T23:12:48.818Z,100.00
2022-08-27T23:15:18.439Z,100.00
2022-08-27T23:17:45.441Z,100.00
2022-08-27T23:20:13.644Z,100.00
2022-08-27T23:22:41.596Z,100.00
2022-08-27T23:25:30.283Z,100.00
2022-08-27T23:28:06.289Z,100.00
2022-08-27T23:30:34.709Z,100.00
2022-08-27T23:33:02.051Z,100.00
2022-08-27T23:35:29.491Z,100.00
2022-08-27T23:37:57.482Z,100.00
2022-08-27T23:40:26.009Z,100.00
2022-08-27T23:42:53.674Z,100.00
2022-08-27T23:45:25.480Z,100.00
2022-08-27T23:47:52.791Z,100.00
2022-08-27T23:50:20.850Z,100.00
2022-08-27T23:52:53.453Z,100.00
2022-08-27T23:55:21.316Z,100.00
2022-08-27T23:57:49.891Z,100.00
